Midland, Missouri
Current Conditions -  °F | °C
As of 1:55 AM on Saturday 20 Dec 2014 (Local Time) from KIRK Reporting Station
Haze Haze  
Wind Chill: 26°   Ceiling: 300
Heat Index: 32°   Visibility: 1.2mi
Dew Point: 32°   Wind: 7mph
Humidity: 100%   Direction: 150°SSE
Pressure: 30.21"   Gusts: NA
Location:  40.2969°N, 92.7524°W
Report Text: KIRK 200755Z AUTO 15006KT 1 1/4SM BR OVC003 00/00 A3021 RMK AO2 SLP242 I1000 T00000000
Loading
Personal Weather Stations






























Interactive Weather Map New forecast layout! Learn more

10-Day Weather Forecast

Advertisements
Track Severe Weather on mobile